createdAt,value
2018-09-18T00:00:04.559Z,18.26
2018-09-18T00:01:04.573Z,18.27
2018-09-18T00:02:04.544Z,18.21
2018-09-18T00:03:04.546Z,18.17
2018-09-18T00:04:04.524Z,18.23
2018-09-18T00:05:04.522Z,18.14
2018-09-18T00:06:04.496Z,18.15
2018-09-18T00:07:04.484Z,18.18
2018-09-18T00:08:04.481Z,18.21
2018-09-18T00:09:04.479Z,18.27
2018-09-18T00:10:04.454Z,18.21
2018-09-18T00:11:04.442Z,18.12
2018-09-18T00:12:04.432Z,18.14
2018-09-18T00:13:04.424Z,18.08
2018-09-18T00:14:04.455Z,18.02
2018-09-18T00:15:04.424Z,18.03
2018-09-18T00:16:04.394Z,18.08
2018-09-18T00:17:04.382Z,18.03
2018-09-18T00:18:04.367Z,18.07
2018-09-18T00:19:04.358Z,18.00
2018-09-18T00:20:04.345Z,17.95
2018-09-18T00:21:04.350Z,17.95
2018-09-18T00:22:04.327Z,17.95
2018-09-18T00:23:04.318Z,17.93
2018-09-18T00:24:04.317Z,17.93
2018-09-18T00:25:04.307Z,17.93
2018-09-18T00:26:04.282Z,17.92
2018-09-18T00:27:04.277Z,17.97
2018-09-18T00:28:04.268Z,18.03
2018-09-18T00:29:04.250Z,18.02
2018-09-18T00:30:04.236Z,18.07
2018-09-18T00:31:04.239Z,18.08
2018-09-18T00:32:04.212Z,18.05
2018-09-18T00:33:04.219Z,18.00
2018-09-18T00:34:04.234Z,18.03
2018-09-18T00:35:04.191Z,18.03
2018-09-18T00:36:04.177Z,18.10
2018-09-18T00:37:04.200Z,17.97
2018-09-18T00:38:04.151Z,18.11
2018-09-18T00:39:04.150Z,18.11
2018-09-18T00:40:04.134Z,18.14
2018-09-18T00:41:04.119Z,18.20
2018-09-18T00:42:04.115Z,18.35
2018-09-18T00:43:04.093Z,18.35
2018-09-18T00:44:04.093Z,18.42
2018-09-18T00:45:04.084Z,18.41
2018-09-18T00:46:04.070Z,18.41
2018-09-18T00:47:04.074Z,18.33
2018-09-18T00:48:04.046Z,18.41
2018-09-18T00:49:04.045Z,18.29
2018-09-18T00:50:04.034Z,18.32
2018-09-18T00:51:04.006Z,18.33
2018-09-18T00:52:03.995Z,18.30
2018-09-18T00:53:03.987Z,18.29
2018-09-18T00:54:03.981Z,18.29
2018-09-18T00:55:03.987Z,18.32
2018-09-18T00:56:03.952Z,18.25
2018-09-18T00:57:03.940Z,18.25
2018-09-18T00:58:03.935Z,18.23
2018-09-18T00:59:03.930Z,18.23
2018-09-18T01:00:03.927Z,18.32
2018-09-18T01:01:03.913Z,18.33
2018-09-18T01:02:03.903Z,18.37
2018-09-18T01:03:03.876Z,18.42
2018-09-18T01:04:03.868Z,18.33
2018-09-18T01:05:03.856Z,18.47
2018-09-18T01:06:03.879Z,18.47
2018-09-18T01:07:03.847Z,18.42
2018-09-18T01:08:03.833Z,18.42
2018-09-18T01:09:03.842Z,18.41
2018-09-18T01:10:03.822Z,18.47
2018-09-18T01:11:03.814Z,18.51
2018-09-18T01:12:03.786Z,18.54
2018-09-18T01:13:03.783Z,18.51
2018-09-18T01:14:03.761Z,18.48
2018-09-18T01:15:03.759Z,18.52
2018-09-18T01:16:03.750Z,18.42
2018-09-18T01:17:03.727Z,18.45
2018-09-18T01:18:03.747Z,18.55
2018-09-18T01:19:03.719Z,18.48
2018-09-18T01:20:03.698Z,18.54
2018-09-18T01:21:03.686Z,18.44
2018-09-18T01:22:03.672Z,18.58
2018-09-18T01:23:03.687Z,18.47
2018-09-18T01:24:03.656Z,18.54
2018-09-18T01:25:03.638Z,18.44
2018-09-18T01:26:03.632Z,18.55
2018-09-18T01:27:03.624Z,18.48
2018-09-18T01:28:03.615Z,18.62
2018-09-18T01:29:03.599Z,18.47
2018-09-18T01:30:03.595Z,18.50
2018-09-18T01:31:03.582Z,18.44
2018-09-18T01:32:03.569Z,18.41
2018-09-18T01:33:03.584Z,18.36
2018-09-18T01:34:03.543Z,18.44
2018-09-18T01:35:03.535Z,18.42
2018-09-18T01:36:03.522Z,18.47
2018-09-18T01:37:03.510Z,18.45
2018-09-18T01:38:03.502Z,18.54
2018-09-18T01:39:03.510Z,18.51
2018-09-18T01:40:03.488Z,18.52
2018-09-18T01:41:03.470Z,18.37
2018-09-18T01:42:03.458Z,18.44
2018-09-18T01:43:03.441Z,18.39
2018-09-18T01:44:03.441Z,18.35
2018-09-18T01:45:03.436Z,18.44
2018-09-18T01:46:03.433Z,18.45
2018-09-18T01:47:03.410Z,18.42
2018-09-18T01:48:03.388Z,18.44
2018-09-18T01:49:03.385Z,18.45
2018-09-18T01:50:03.371Z,18.37
2018-09-18T01:51:03.384Z,18.29
2018-09-18T01:52:03.355Z,18.20
2018-09-18T01:53:03.341Z,18.18
2018-09-18T01:54:03.324Z,18.11
2018-09-18T01:55:03.311Z,18.12
2018-09-18T01:56:03.299Z,18.08
2018-09-18T01:57:03.306Z,18.10
2018-09-18T01:58:03.285Z,18.14
2018-09-18T01:59:03.275Z,18.12
2018-09-18T02:00:03.259Z,18.12
2018-09-18T02:01:03.247Z,18.11
2018-09-18T02:02:03.258Z,18.08
2018-09-18T02:03:03.246Z,18.12
2018-09-18T02:04:03.220Z,18.14
2018-09-18T02:05:03.212Z,17.99
2018-09-18T02:06:03.194Z,18.00
2018-09-18T02:07:03.179Z,18.03
2018-09-18T02:08:03.168Z,18.15
2018-09-18T02:09:03.193Z,18.12
2018-09-18T02:10:03.152Z,18.20
2018-09-18T02:11:03.153Z,18.20
2018-09-18T02:12:03.133Z,18.15
2018-09-18T02:13:03.121Z,18.08
2018-09-18T02:14:03.107Z,18.15
2018-09-18T02:15:03.107Z,18.15
2018-09-18T02:16:03.089Z,18.11
2018-09-18T02:17:03.076Z,18.14
2018-09-18T02:18:03.063Z,18.21
2018-09-18T02:19:03.048Z,18.27
2018-09-18T02:20:03.040Z,18.21
2018-09-18T02:21:03.039Z,18.14
2018-09-18T02:22:03.021Z,18.20
2018-09-18T02:23:03.012Z,18.03
2018-09-18T02:24:03.006Z,17.99
2018-09-18T02:25:02.989Z,18.07
2018-09-18T02:26:02.988Z,17.95
2018-09-18T02:27:02.964Z,17.97
2018-09-18T02:28:02.951Z,17.96
2018-09-18T02:29:02.942Z,17.96
2018-09-18T02:30:02.937Z,17.95
2018-09-18T02:31:02.937Z,17.84
2018-09-18T02:32:02.943Z,17.87
2018-09-18T02:33:02.908Z,17.82
2018-09-18T02:34:02.890Z,17.92
2018-09-18T02:35:02.882Z,17.75
2018-09-18T02:36:02.885Z,17.78
2018-09-18T02:37:02.859Z,17.74
2018-09-18T02:38:02.853Z,17.78
2018-09-18T02:39:02.834Z,17.75
2018-09-18T02:40:02.826Z,17.79
2018-09-18T02:41:02.813Z,17.96
2018-09-18T02:42:02.833Z,17.84
2018-09-18T02:43:02.797Z,17.81
2018-09-18T02:44:02.792Z,17.92
2018-09-18T02:45:02.777Z,17.82
2018-09-18T02:46:02.756Z,17.81
2018-09-18T02:47:02.753Z,17.93
2018-09-18T02:48:02.751Z,17.81
2018-09-18T02:49:02.728Z,17.74
2018-09-18T02:50:02.719Z,17.77
2018-09-18T02:51:02.698Z,17.79
2018-09-18T02:52:02.688Z,17.77
2018-09-18T02:53:02.696Z,17.75
2018-09-18T02:54:02.672Z,17.71
2018-09-18T02:55:02.664Z,17.75
2018-09-18T02:56:02.655Z,17.72
2018-09-18T02:57:02.645Z,17.78
2018-09-18T02:58:02.633Z,17.84
2018-09-18T02:59:02.621Z,17.77
2018-09-18T03:00:02.610Z,17.66
2018-09-18T03:01:02.594Z,17.64
2018-09-18T03:02:02.593Z,17.59
2018-09-18T03:03:02.592Z,17.63
2018-09-18T03:04:02.562Z,17.68
2018-09-18T03:05:02.571Z,17.75
2018-09-18T03:06:02.544Z,17.68
2018-09-18T03:07:02.529Z,17.66
2018-09-18T03:08:02.530Z,17.71
2018-09-18T03:09:02.515Z,17.81
2018-09-18T03:10:02.492Z,17.74
2018-09-18T03:11:02.485Z,17.77
2018-09-18T03:12:02.479Z,17.72
2018-09-18T03:13:02.492Z,17.72
2018-09-18T03:14:02.463Z,17.71
2018-09-18T03:15:02.442Z,17.70
2018-09-18T03:16:02.432Z,17.71
2018-09-18T03:17:02.425Z,17.71
2018-09-18T03:18:02.429Z,17.74
2018-09-18T03:19:02.411Z,17.75
2018-09-18T03:20:02.392Z,17.72
2018-09-18T03:21:02.470Z,17.71
2018-09-18T03:22:02.362Z,17.81
2018-09-18T03:23:02.368Z,17.75
2018-09-18T03:24:02.344Z,17.75
2018-09-18T03:25:02.346Z,17.72
2018-09-18T03:26:02.327Z,17.75
2018-09-18T03:27:02.315Z,17.77
2018-09-18T03:28:02.321Z,17.75
2018-09-18T03:29:02.294Z,17.77
2018-09-18T03:30:02.278Z,17.75
2018-09-18T03:31:02.283Z,17.79
2018-09-18T03:32:02.271Z,17.74
2018-09-18T03:33:02.244Z,17.74
2018-09-18T03:34:02.240Z,17.75
2018-09-18T03:35:02.248Z,17.74
2018-09-18T03:36:02.212Z,17.74
2018-09-18T03:37:02.241Z,17.75
2018-09-18T03:38:02.201Z,17.71
2018-09-18T03:39:02.191Z,17.63
2018-09-18T03:40:02.203Z,17.54
2018-09-18T03:41:02.187Z,17.46
2018-09-18T03:42:02.157Z,17.51
2018-09-18T03:43:02.149Z,17.51
2018-09-18T03:44:02.129Z,17.52
2018-09-18T03:45:02.127Z,17.58
2018-09-18T03:46:02.183Z,17.56
2018-09-18T03:47:02.111Z,17.55
2018-09-18T03:48:02.087Z,17.55
2018-09-18T03:49:02.124Z,17.54
2018-09-18T03:50:02.060Z,17.44
2018-09-18T03:51:02.053Z,17.55
2018-09-18T03:52:02.045Z,17.41
2018-09-18T03:53:02.045Z,17.43
2018-09-18T03:54:02.016Z,17.55
2018-09-18T03:55:02.026Z,17.54
2018-09-18T03:56:02.001Z,17.54
2018-09-18T03:57:02.000Z,17.49
2018-09-18T03:58:01.985Z,17.46
2018-09-18T03:59:01.972Z,17.48
2018-09-18T04:00:01.962Z,17.31
2018-09-18T04:01:01.970Z,17.31
2018-09-18T04:02:01.932Z,17.28
2018-09-18T04:03:02.012Z,17.30
2018-09-18T04:04:01.932Z,17.36
2018-09-18T04:05:01.901Z,17.49
2018-09-18T04:06:01.906Z,17.44
2018-09-18T04:07:01.892Z,17.44
2018-09-18T04:08:01.867Z,17.41
2018-09-18T04:09:01.854Z,17.30
2018-09-18T04:10:01.900Z,17.31
2018-09-18T04:11:01.838Z,17.33
2018-09-18T04:12:01.830Z,17.28
2018-09-18T04:13:01.834Z,17.28
2018-09-18T04:14:01.802Z,17.33
2018-09-18T04:15:01.792Z,17.36
2018-09-18T04:16:01.797Z,17.33
2018-09-18T04:17:01.771Z,17.33
2018-09-18T04:18:01.769Z,17.34
2018-09-18T04:19:01.755Z,17.36
2018-09-18T04:20:01.742Z,17.33
2018-09-18T04:21:01.733Z,17.26
2018-09-18T04:22:01.730Z,17.28
2018-09-18T04:23:01.709Z,17.33
2018-09-18T04:24:01.701Z,17.40
2018-09-18T04:25:01.691Z,17.55
2018-09-18T04:26:01.671Z,17.51
2018-09-18T04:27:01.667Z,17.48
2018-09-18T04:28:01.671Z,17.41
2018-09-18T04:29:01.649Z,17.44
2018-09-18T04:30:01.634Z,17.43
2018-09-18T04:31:01.622Z,17.33
2018-09-18T04:32:01.614Z,17.34
2018-09-18T04:33:01.607Z,17.34
2018-09-18T04:34:01.600Z,17.37
2018-09-18T04:35:01.583Z,17.30
2018-09-18T04:36:01.583Z,17.31
2018-09-18T04:37:01.575Z,17.28
2018-09-18T04:38:01.550Z,17.26
2018-09-18T04:39:01.538Z,17.28
2018-09-18T04:40:01.524Z,17.33
2018-09-18T04:41:01.522Z,17.26
2018-09-18T04:42:01.513Z,17.31
2018-09-18T04:43:01.495Z,17.25
2018-09-18T04:44:01.485Z,17.31
2018-09-18T04:45:01.491Z,17.30
2018-09-18T04:46:01.472Z,17.25
2018-09-18T04:47:01.453Z,17.31
2018-09-18T04:48:01.440Z,17.30
2018-09-18T04:49:01.425Z,17.28
2018-09-18T04:50:01.431Z,17.33
2018-09-18T04:51:01.436Z,17.26
2018-09-18T04:52:01.400Z,17.30
2018-09-18T04:53:01.401Z,17.25
2018-09-18T04:54:01.370Z,17.23
2018-09-18T04:55:01.462Z,17.28
2018-09-18T04:56:01.365Z,17.22
2018-09-18T04:57:01.357Z,17.30
2018-09-18T04:58:01.342Z,17.23
2018-09-18T04:59:01.319Z,17.34
2018-09-18T05:00:01.331Z,17.33
2018-09-18T05:01:01.295Z,17.30
2018-09-18T05:02:01.366Z,17.33
2018-09-18T05:03:01.279Z,17.31
2018-09-18T05:04:01.285Z,17.30
2018-09-18T05:05:01.259Z,17.43
2018-09-18T05:06:01.256Z,17.40
2018-09-18T05:07:01.251Z,17.41
2018-09-18T05:08:01.222Z,17.54
2018-09-18T05:09:01.209Z,17.51
2018-09-18T05:10:01.209Z,17.55
2018-09-18T05:11:01.194Z,17.54
2018-09-18T05:12:01.180Z,17.56
2018-09-18T05:13:01.197Z,17.51
2018-09-18T05:14:01.246Z,17.56
2018-09-18T05:15:01.150Z,17.56
2018-09-18T05:16:01.152Z,17.56
2018-09-18T05:17:01.133Z,17.51
2018-09-18T05:18:01.113Z,17.49
2018-09-18T05:19:55.076Z,17.49
2018-09-18T05:20:55.060Z,17.55
2018-09-18T05:21:55.056Z,17.52
2018-09-18T05:22:55.042Z,17.52
2018-09-18T05:23:55.040Z,17.56
2018-09-18T05:24:55.018Z,17.59
2018-09-18T05:25:55.009Z,17.55
2018-09-18T05:26:54.991Z,17.63
2018-09-18T05:27:54.983Z,17.59
2018-09-18T05:28:54.983Z,17.66
2018-09-18T05:29:54.958Z,17.70
2018-09-18T05:30:54.959Z,17.58
2018-09-18T05:31:54.958Z,17.62
2018-09-18T05:32:54.947Z,17.64
2018-09-18T05:33:54.928Z,17.59
2018-09-18T05:34:54.906Z,17.59
2018-09-18T05:35:54.899Z,17.59
2018-09-18T05:36:54.890Z,17.62
2018-09-18T05:37:54.881Z,17.62
2018-09-18T05:38:54.873Z,17.68
2018-09-18T05:39:54.855Z,17.64
2018-09-18T05:40:54.843Z,17.64
2018-09-18T05:41:54.886Z,17.64
2018-09-18T05:42:54.828Z,17.66
2018-09-18T05:43:54.826Z,17.62
2018-09-18T05:44:54.806Z,17.63
2018-09-18T05:45:54.802Z,17.63
2018-09-18T05:46:54.784Z,17.72
2018-09-18T05:47:54.774Z,17.79
2018-09-18T05:48:54.762Z,17.77
2018-09-18T05:49:54.755Z,17.81
2018-09-18T05:50:54.733Z,17.84
2018-09-18T05:51:54.852Z,17.82
2018-09-18T05:52:54.716Z,17.79
2018-09-18T05:53:54.709Z,17.97
2018-09-18T05:54:54.708Z,17.96
2018-09-18T05:55:54.682Z,18.05
2018-09-18T05:56:54.682Z,18.08
2018-09-18T05:57:54.658Z,18.11
2018-09-18T05:58:54.667Z,18.12
2018-09-18T05:59:54.641Z,18.14
2018-09-18T06:00:54.630Z,18.25
2018-09-18T06:01:54.622Z,18.27
2018-09-18T06:02:54.616Z,18.27
2018-09-18T06:03:54.606Z,18.39
2018-09-18T06:04:54.586Z,18.45
2018-09-18T06:05:54.570Z,18.54
2018-09-18T06:06:54.567Z,18.47
2018-09-18T06:07:54.586Z,18.51
2018-09-18T06:08:54.541Z,18.66
2018-09-18T06:09:54.526Z,18.72
2018-09-18T06:10:54.523Z,18.84
2018-09-18T06:11:54.511Z,18.82
2018-09-18T06:12:54.499Z,18.87
2018-09-18T06:13:54.505Z,18.88
2018-09-18T06:14:54.473Z,19.07
2018-09-18T06:15:54.464Z,19.10
2018-09-18T06:16:54.454Z,19.07
2018-09-18T06:17:54.456Z,19.26
2018-09-18T06:18:54.478Z,19.23
2018-09-18T06:19:54.424Z,19.29
2018-09-18T06:20:54.419Z,19.41
2018-09-18T06:21:54.407Z,19.56
2018-09-18T06:22:54.387Z,19.48
2018-09-18T06:23:54.378Z,19.58
2018-09-18T06:24:54.381Z,19.51
2018-09-18T06:25:54.361Z,19.54
2018-09-18T06:26:54.346Z,19.69
2018-09-18T06:27:54.334Z,19.74
2018-09-18T06:28:54.320Z,19.78
2018-09-18T06:29:54.325Z,19.83
2018-09-18T06:30:54.331Z,19.84
2018-09-18T06:31:54.293Z,19.91
2018-09-18T06:32:54.283Z,19.94
2018-09-18T06:33:54.275Z,20.11
2018-09-18T06:34:54.258Z,20.10
2018-09-18T06:35:54.260Z,20.10
2018-09-18T06:36:54.273Z,20.20
2018-09-18T06:37:54.247Z,20.31
2018-09-18T06:38:54.220Z,20.24
2018-09-18T06:39:54.209Z,20.14
2018-09-18T06:40:54.215Z,20.10
2018-09-18T06:41:54.182Z,20.24
2018-09-18T06:42:54.178Z,20.17
2018-09-18T06:43:54.175Z,20.29
2018-09-18T06:44:54.153Z,20.29
2018-09-18T06:45:54.146Z,20.35
2018-09-18T06:46:54.126Z,20.43
2018-09-18T06:47:54.173Z,20.47
2018-09-18T06:48:54.122Z,20.54
2018-09-18T06:49:54.094Z,20.57
2018-09-18T06:50:54.091Z,20.66
2018-09-18T06:51:54.100Z,20.64
2018-09-18T06:52:54.066Z,20.73
2018-09-18T06:53:54.065Z,20.77
2018-09-18T06:54:54.055Z,20.76
2018-09-18T06:55:54.032Z,20.92
2018-09-18T06:56:54.025Z,20.80
2018-09-18T06:57:54.016Z,20.74
2018-09-18T06:58:53.997Z,20.80
2018-09-18T06:59:53.989Z,20.91
2018-09-18T07:00:53.994Z,21.17
2018-09-18T07:01:53.966Z,21.10
2018-09-18T07:02:53.983Z,21.09
2018-09-18T07:03:53.963Z,21.22
2018-09-18T07:04:53.938Z,21.27
2018-09-18T07:05:53.930Z,21.37
2018-09-18T07:06:53.922Z,21.47
2018-09-18T07:07:53.907Z,21.43
2018-09-18T07:08:53.892Z,21.67
2018-09-18T07:09:53.883Z,21.47
2018-09-18T07:10:53.900Z,21.47
2018-09-18T07:11:53.909Z,21.62
2018-09-18T07:12:53.858Z,21.77
2018-09-18T07:13:53.856Z,21.83
2018-09-18T07:14:53.839Z,21.82
2018-09-18T07:15:53.821Z,21.71
2018-09-18T07:16:53.836Z,21.68
2018-09-18T07:17:53.841Z,21.68
2018-09-18T07:18:53.783Z,21.96
2018-09-18T07:19:53.774Z,21.83
2018-09-18T07:20:53.779Z,22.20
2018-09-18T07:21:53.750Z,22.27
2018-09-18T07:22:53.753Z,22.40
2018-09-18T07:23:53.740Z,22.37
2018-09-18T07:24:53.800Z,22.49
2018-09-18T07:25:53.716Z,22.65
2018-09-18T07:26:53.725Z,22.57
2018-09-18T07:27:53.690Z,22.77
2018-09-18T07:28:53.680Z,22.54
2018-09-18T07:29:53.673Z,22.77
2018-09-18T07:30:53.653Z,22.70
2018-09-18T07:31:53.656Z,22.85
2018-09-18T07:32:53.653Z,23.10
2018-09-18T07:33:53.658Z,23.46
2018-09-18T07:34:53.620Z,23.33
2018-09-18T07:35:53.611Z,23.53
2018-09-18T07:36:53.594Z,23.72
2018-09-18T07:37:53.587Z,24.09
2018-09-18T07:38:53.578Z,24.42
2018-09-18T07:39:53.579Z,24.68
2018-09-18T07:40:53.611Z,25.10
2018-09-18T07:41:53.535Z,25.23
2018-09-18T07:42:53.535Z,25.14
2018-09-18T07:43:53.530Z,25.20
2018-09-18T07:44:53.508Z,25.24
2018-09-18T07:45:53.493Z,25.62
2018-09-18T07:46:53.491Z,25.82
2018-09-18T07:47:53.488Z,25.94
2018-09-18T07:48:53.478Z,25.38
2018-09-18T07:49:53.481Z,25.36
2018-09-18T07:50:53.441Z,25.10
2018-09-18T07:51:53.435Z,24.98
2018-09-18T07:52:53.426Z,24.93
2018-09-18T07:53:53.420Z,25.14
2018-09-18T07:54:53.412Z,24.90
2018-09-18T07:55:53.396Z,24.68
2018-09-18T07:56:53.388Z,24.35
2018-09-18T07:57:53.388Z,24.58
2018-09-18T07:58:53.363Z,24.91
2018-09-18T07:59:53.352Z,24.69
2018-09-18T08:00:53.346Z,25.13
2018-09-18T08:01:53.339Z,25.43
2018-09-18T08:02:53.355Z,25.72
2018-09-18T08:03:53.314Z,25.67
2018-09-18T08:04:53.305Z,25.35
2018-09-18T08:05:53.292Z,25.36
2018-09-18T08:06:53.290Z,25.99
2018-09-18T08:07:53.278Z,26.13
2018-09-18T08:08:53.284Z,26.76
2018-09-18T08:09:53.264Z,27.47
2018-09-18T08:10:53.322Z,28.34
2018-09-18T08:11:53.236Z,28.51
2018-09-18T08:12:53.229Z,28.73
2018-09-18T08:13:53.213Z,28.78
2018-09-18T08:14:53.220Z,29.12
2018-09-18T08:15:53.198Z,30.05
2018-09-18T08:16:53.185Z,31.43
2018-09-18T08:17:53.173Z,31.63
2018-09-18T08:18:53.311Z,31.93
2018-09-18T08:19:53.156Z,32.59
2018-09-18T08:20:53.162Z,33.47
2018-09-18T08:21:53.187Z,33.78
2018-09-18T08:22:53.146Z,33.35
2018-09-18T08:23:53.113Z,33.37
2018-09-18T08:24:53.104Z,33.14
2018-09-18T08:25:53.089Z,33.14
2018-09-18T08:26:53.116Z,33.16
2018-09-18T08:27:53.074Z,32.74
2018-09-18T08:28:53.063Z,33.03
2018-09-18T08:29:53.055Z,32.40
2018-09-18T08:30:53.037Z,33.56
2018-09-18T08:31:53.039Z,34.31
2018-09-18T08:32:53.061Z,34.94
2018-09-18T08:33:53.025Z,35.34
2018-09-18T08:34:52.996Z,35.89
2018-09-18T08:35:53.027Z,36.76
2018-09-18T08:36:52.980Z,36.95
2018-09-18T08:37:52.966Z,37.64
2018-09-18T08:38:52.966Z,38.46
2018-09-18T08:39:53.024Z,39.03
2018-09-18T08:40:52.974Z,38.95
2018-09-18T08:41:52.948Z,38.16
2018-09-18T08:42:52.918Z,38.01
2018-09-18T08:43:52.912Z,36.80
2018-09-18T08:44:52.908Z,36.41
2018-09-18T08:45:52.905Z,35.16
2018-09-18T08:46:52.907Z,35.18
2018-09-18T08:47:52.892Z,35.74
2018-09-18T08:48:52.910Z,36.83
2018-09-18T08:49:52.864Z,37.17
2018-09-18T08:50:52.856Z,36.85
2018-09-18T08:51:52.940Z,38.16
2018-09-18T08:52:52.855Z,39.67
2018-09-18T08:53:52.859Z,40.91
2018-09-18T08:54:52.929Z,42.02
2018-09-18T08:55:52.820Z,42.04
2018-09-18T08:56:52.815Z,41.73
2018-09-18T08:57:52.815Z,42.16
2018-09-18T08:58:52.803Z,42.52
2018-09-18T08:59:52.783Z,43.17
2018-09-18T09:00:52.764Z,43.64
2018-09-18T09:01:52.807Z,43.95
2018-09-18T09:02:52.768Z,44.37
2018-09-18T09:03:52.758Z,42.84
2018-09-18T09:04:52.774Z,40.94
2018-09-18T09:05:52.803Z,40.61
2018-09-18T09:06:52.713Z,40.77
2018-09-18T09:07:52.831Z,40.54
2018-09-18T09:08:52.822Z,41.57
2018-09-18T09:09:52.680Z,42.16
2018-09-18T09:10:52.721Z,43.02
2018-09-18T09:11:52.675Z,43.49
2018-09-18T09:12:52.666Z,42.84
2018-09-18T09:13:52.657Z,40.62
2018-09-18T09:14:52.723Z,40.43
2018-09-18T09:15:52.643Z,38.19
2018-09-18T09:16:52.665Z,38.19
2018-09-18T09:17:52.627Z,39.22
2018-09-18T09:18:52.639Z,39.85
2018-09-18T09:19:52.641Z,40.32
2018-09-18T09:20:52.682Z,40.96
2018-09-18T09:21:52.748Z,39.60
2018-09-18T09:22:52.649Z,38.75
2018-09-18T09:23:52.567Z,39.18
2018-09-18T09:24:52.569Z,40.27
2018-09-18T09:25:52.587Z,40.99
2018-09-18T09:26:52.569Z,41.71
2018-09-18T09:27:52.559Z,39.57
2018-09-18T09:28:52.537Z,39.22
2018-09-18T09:29:52.626Z,40.62
2018-09-18T09:30:52.542Z,41.23
2018-09-18T09:31:52.496Z,41.94
2018-09-18T09:32:52.503Z,41.70
2018-09-18T09:33:52.491Z,39.67
2018-09-18T09:34:52.465Z,38.96
2018-09-18T09:35:52.475Z,39.44
2018-09-18T09:36:52.475Z,38.63
2018-09-18T09:37:52.460Z,38.23
2018-09-18T09:38:52.465Z,39.78
2018-09-18T09:39:52.422Z,39.73
2018-09-18T09:40:52.416Z,40.38
2018-09-18T09:41:52.403Z,40.31
2018-09-18T09:42:52.402Z,38.93
2018-09-18T09:43:52.479Z,38.30
2018-09-18T09:44:52.388Z,39.50
2018-09-18T09:45:52.374Z,39.88
2018-09-18T09:46:52.359Z,39.44
2018-09-18T09:47:52.355Z,39.97
2018-09-18T09:48:52.361Z,39.78
2018-09-18T09:49:52.341Z,39.55
2018-09-18T09:50:52.331Z,38.23
2018-09-18T09:51:52.318Z,37.70
2018-09-18T09:52:52.308Z,35.96
2018-09-18T09:53:52.294Z,36.66
2018-09-18T09:54:52.305Z,36.76
2018-09-18T09:55:52.293Z,38.68
2018-09-18T09:56:52.320Z,38.30
2018-09-18T09:57:52.270Z,38.18
2018-09-18T09:58:52.269Z,38.11
2018-09-18T09:59:52.240Z,38.32
2018-09-18T10:00:52.241Z,38.78
2018-09-18T10:01:52.222Z,39.57
2018-09-18T10:02:52.304Z,40.43
2018-09-18T10:03:52.213Z,41.42
2018-09-18T10:04:52.217Z,42.35
2018-09-18T10:05:52.189Z,42.86
2018-09-18T10:06:52.178Z,42.02
2018-09-18T10:07:52.171Z,41.66
2018-09-18T10:08:52.167Z,41.17
2018-09-18T10:09:52.155Z,39.86
2018-09-18T10:10:52.329Z,38.71
2018-09-18T10:11:52.139Z,38.22
2018-09-18T10:12:52.120Z,39.07
2018-09-18T10:13:52.117Z,39.22
2018-09-18T10:14:52.109Z,38.78
2018-09-18T10:15:52.101Z,38.68
2018-09-18T10:16:52.104Z,37.66
2018-09-18T10:17:52.189Z,37.31
2018-09-18T10:18:52.070Z,37.51
2018-09-18T10:19:52.056Z,37.97
2018-09-18T10:20:52.047Z,38.32
2018-09-18T10:21:52.071Z,38.63
2018-09-18T10:22:52.039Z,38.69
2018-09-18T10:23:52.038Z,39.33
2018-09-18T10:24:52.022Z,40.01
2018-09-18T10:25:52.025Z,40.79
2018-09-18T10:26:52.093Z,39.73
2018-09-18T10:27:51.999Z,40.54
2018-09-18T10:28:51.978Z,39.57
2018-09-18T10:29:51.976Z,38.69
2018-09-18T10:30:51.959Z,39.07
2018-09-18T10:31:51.982Z,38.20
2018-09-18T10:32:51.946Z,38.11
2018-09-18T10:33:51.944Z,37.98
2018-09-18T10:34:51.938Z,38.37
2018-09-18T10:35:51.912Z,38.91
2018-09-18T10:36:51.937Z,38.47
2018-09-18T10:37:51.924Z,38.16
2018-09-18T10:38:51.878Z,37.03
2018-09-18T10:39:51.865Z,35.43
2018-09-18T10:40:52.002Z,34.15
2018-09-18T10:41:51.975Z,32.41
2018-09-18T10:42:51.858Z,31.46
2018-09-18T10:43:51.827Z,31.36
2018-09-18T10:44:51.817Z,31.29
2018-09-18T10:45:51.819Z,31.20
2018-09-18T10:46:51.801Z,31.46
2018-09-18T10:47:51.824Z,31.41
2018-09-18T10:48:51.799Z,30.95
2018-09-18T10:49:51.774Z,30.37
2018-09-18T10:50:51.759Z,30.37
2018-09-18T10:51:51.749Z,30.29
2018-09-18T10:52:51.751Z,30.29
2018-09-18T10:53:51.730Z,30.02
2018-09-18T10:54:51.745Z,30.01
2018-09-18T10:55:51.716Z,30.31
2018-09-18T10:56:51.695Z,30.45
2018-09-18T10:57:51.688Z,30.75
2018-09-18T10:58:51.692Z,30.98
2018-09-18T10:59:51.695Z,31.07
2018-09-18T11:00:51.663Z,30.79
2018-09-18T11:01:51.716Z,30.75
2018-09-18T11:02:51.648Z,30.37
2018-09-18T11:03:51.661Z,30.39
2018-09-18T11:04:51.640Z,30.42
2018-09-18T11:05:51.611Z,30.35
2018-09-18T11:06:51.601Z,30.39
2018-09-18T11:07:51.755Z,30.34
2018-09-18T11:08:51.600Z,30.37
2018-09-18T11:09:51.691Z,30.61
2018-09-18T11:10:51.634Z,30.72
2018-09-18T11:11:51.544Z,30.92
2018-09-18T11:12:51.574Z,31.12
2018-09-18T11:13:51.543Z,31.07
2018-09-18T11:14:51.613Z,30.95
2018-09-18T11:15:51.611Z,30.84
2018-09-18T11:16:51.495Z,30.91
2018-09-18T11:17:51.500Z,30.97
2018-09-18T11:18:51.545Z,31.09
2018-09-18T11:19:58.544Z,31.28
2018-09-18T11:20:51.527Z,31.36
2018-09-18T11:21:51.496Z,31.48
2018-09-18T11:22:51.442Z,31.48
2018-09-18T11:23:51.422Z,31.48
2018-09-18T11:24:51.420Z,31.43
2018-09-18T11:25:51.465Z,31.43
2018-09-18T11:26:51.405Z,31.28
2018-09-18T11:27:51.406Z,31.44
2018-09-18T11:28:51.376Z,31.43
2018-09-18T11:29:51.369Z,31.44
2018-09-18T11:30:51.371Z,31.62
2018-09-18T11:31:51.355Z,31.69
2018-09-18T11:32:51.442Z,31.84
2018-09-18T11:33:51.321Z,31.47
2018-09-18T11:34:51.312Z,31.39
2018-09-18T11:35:51.305Z,31.66
2018-09-18T11:36:51.306Z,31.72
2018-09-18T11:37:51.287Z,31.85
2018-09-18T11:38:51.277Z,32.06
2018-09-18T11:39:51.269Z,32.19
2018-09-18T11:40:51.253Z,32.06
2018-09-18T11:41:51.258Z,31.93
2018-09-18T11:42:51.239Z,31.93
2018-09-18T11:43:51.225Z,32.00
2018-09-18T11:44:51.214Z,32.28
2018-09-18T11:45:51.316Z,32.32
2018-09-18T11:46:51.192Z,32.43
2018-09-18T11:47:51.196Z,32.37
2018-09-18T11:48:51.191Z,32.25
2018-09-18T11:49:51.165Z,32.26
2018-09-18T11:50:51.157Z,32.35
2018-09-18T11:51:51.146Z,32.40
2018-09-18T11:52:51.240Z,32.50
2018-09-18T11:53:51.114Z,32.62
2018-09-18T11:54:51.114Z,32.56
2018-09-18T11:55:51.095Z,32.52
2018-09-18T11:56:51.159Z,32.40
2018-09-18T11:57:51.093Z,32.38
2018-09-18T11:58:51.062Z,32.25
2018-09-18T11:59:51.062Z,32.26
2018-09-18T12:00:51.046Z,32.35
2018-09-18T12:01:51.038Z,32.45
2018-09-18T12:02:51.199Z,32.55
2018-09-18T12:03:51.023Z,32.52
2018-09-18T12:04:51.155Z,32.40
2018-09-18T12:05:51.035Z,32.35
2018-09-18T12:06:50.987Z,32.41
2018-09-18T12:07:50.969Z,32.50
2018-09-18T12:08:51.054Z,32.51
2018-09-18T12:09:50.964Z,32.62
2018-09-18T12:10:50.943Z,32.37
2018-09-18T12:11:50.928Z,32.26
2018-09-18T12:12:50.914Z,32.03
2018-09-18T12:13:50.931Z,31.89
2018-09-18T12:14:50.899Z,32.04
2018-09-18T12:15:50.888Z,32.14
2018-09-18T12:16:50.882Z,32.22
2018-09-18T12:17:50.870Z,32.28
2018-09-18T12:18:50.851Z,32.43
2018-09-18T12:19:50.841Z,32.08
2018-09-18T12:20:50.833Z,32.10
2018-09-18T12:21:50.825Z,32.11
2018-09-18T12:22:50.849Z,32.15
2018-09-18T12:23:50.833Z,32.23
2018-09-18T12:24:50.793Z,32.29
2018-09-18T12:25:50.773Z,32.32
2018-09-18T12:26:50.767Z,32.22
2018-09-18T12:27:50.779Z,32.11
2018-09-18T12:28:50.758Z,32.32
2018-09-18T12:29:50.739Z,32.33
2018-09-18T12:30:50.722Z,32.51
2018-09-18T12:31:50.712Z,32.51
2018-09-18T12:32:50.703Z,32.41
2018-09-18T12:33:50.705Z,32.37
2018-09-18T12:34:50.686Z,32.44
2018-09-18T12:35:50.750Z,32.52
2018-09-18T12:36:50.770Z,32.43
2018-09-18T12:37:50.645Z,32.40
2018-09-18T12:38:50.653Z,32.32
2018-09-18T12:39:50.625Z,32.26
2018-09-18T12:40:50.616Z,32.29
2018-09-18T12:41:50.645Z,32.41
2018-09-18T12:42:50.694Z,32.40
2018-09-18T12:43:50.588Z,32.40
2018-09-18T12:44:50.587Z,32.44
2018-09-18T12:45:50.560Z,32.41
2018-09-18T12:46:50.577Z,32.35
2018-09-18T12:47:50.577Z,32.35
2018-09-18T12:48:50.532Z,32.30
2018-09-18T12:49:50.698Z,32.35
2018-09-18T12:50:50.514Z,32.29
2018-09-18T12:51:50.503Z,32.28
2018-09-18T12:52:50.495Z,32.37